createdAt,value
2022-11-13T00:01:52.360Z,97.71
2022-11-13T00:05:13.037Z,97.47
2022-11-13T00:08:41.020Z,97.30
2022-11-13T00:12:01.619Z,97.29
2022-11-13T00:15:28.895Z,97.45
2022-11-13T00:18:49.485Z,97.81
2022-11-13T00:22:09.878Z,98.25
2022-11-13T00:25:30.557Z,98.18
2022-11-13T00:29:00.184Z,98.11
2022-11-13T00:32:20.821Z,97.87
2022-11-13T00:35:41.543Z,97.78
2022-11-13T00:39:02.247Z,97.83
2022-11-13T00:42:23.184Z,97.95
2022-11-13T00:45:43.858Z,98.02
2022-11-13T00:49:04.676Z,98.13
2022-11-13T00:52:25.210Z,98.48
2022-11-13T00:55:46.286Z,98.20
2022-11-13T00:59:06.902Z,99.09
2022-11-13T01:02:27.783Z,98.95
2022-11-13T01:05:48.466Z,98.21
2022-11-13T01:09:09.345Z,97.91
2022-11-13T01:12:29.775Z,97.85
2022-11-13T01:15:50.451Z,97.69
2022-11-13T01:19:11.184Z,97.23
2022-11-13T01:22:32.013Z,96.84
2022-11-13T01:25:52.857Z,96.92
2022-11-13T01:29:13.650Z,97.66
2022-11-13T01:32:34.470Z,97.77
2022-11-13T01:36:04.995Z,97.87
2022-11-13T01:39:26.400Z,97.62
2022-11-13T01:42:46.955Z,97.61
2022-11-13T01:46:52.762Z,97.20
2022-11-13T01:50:15.048Z,97.86
2022-11-13T01:53:36.278Z,98.28
2022-11-13T01:56:56.843Z,97.53
2022-11-13T02:00:17.833Z,97.21
2022-11-13T02:03:38.709Z,97.34
2022-11-13T02:07:11.310Z,96.88
2022-11-13T02:10:32.109Z,96.94
2022-11-13T02:13:56.281Z,97.54
2022-11-13T02:17:23.786Z,97.72
2022-11-13T02:21:00.851Z,97.89
2022-11-13T02:24:26.058Z,98.31
2022-11-13T02:27:49.011Z,98.27
2022-11-13T02:31:12.229Z,98.30
2022-11-13T02:34:32.725Z,98.29
2022-11-13T02:37:56.255Z,98.59
2022-11-13T02:41:17.329Z,97.90
2022-11-13T02:44:37.845Z,98.62
2022-11-13T02:48:01.637Z,98.73
2022-11-13T02:51:22.629Z,98.20
2022-11-13T02:54:43.028Z,97.99
2022-11-13T02:58:04.023Z,98.45
2022-11-13T03:01:24.365Z,98.13
2022-11-13T03:05:10.919Z,97.84
2022-11-13T03:08:27.814Z,97.76
2022-11-13T03:11:48.781Z,97.81
2022-11-13T03:15:09.906Z,98.08
2022-11-13T03:18:30.747Z,98.59
2022-11-13T03:21:51.416Z,98.54
2022-11-13T03:25:11.709Z,98.87
2022-11-13T03:28:33.054Z,98.63
2022-11-13T03:31:53.977Z,98.32
2022-11-13T03:35:14.444Z,98.36
2022-11-13T03:38:35.225Z,97.95
2022-11-13T03:41:55.973Z,98.06
2022-11-13T03:45:16.664Z,97.79
2022-11-13T03:48:37.383Z,97.72
2022-11-13T03:51:58.062Z,97.54
2022-11-13T03:55:19.329Z,97.65
2022-11-13T03:58:40.607Z,97.81
2022-11-13T04:02:01.465Z,98.29
2022-11-13T04:05:23.242Z,98.24
2022-11-13T04:08:43.912Z,98.69
2022-11-13T04:12:04.714Z,98.55
2022-11-13T04:15:25.445Z,98.43
2022-11-13T04:18:46.292Z,98.26
2022-11-13T04:22:07.133Z,98.64
2022-11-13T04:25:27.765Z,98.48
2022-11-13T04:28:48.898Z,98.60
2022-11-13T04:32:09.543Z,98.61
2022-11-13T04:35:30.124Z,98.29
2022-11-13T04:38:51.006Z,97.92
2022-11-13T04:42:31.215Z,98.42
2022-11-13T04:45:53.092Z,98.86
2022-11-13T04:49:13.526Z,98.18
2022-11-13T04:52:34.336Z,97.97
2022-11-13T04:55:55.218Z,98.16
2022-11-13T04:59:15.935Z,98.19
2022-11-13T05:02:36.890Z,98.41
2022-11-13T05:06:09.594Z,98.81
2022-11-13T05:09:30.149Z,98.30
2022-11-13T05:12:50.822Z,98.10
2022-11-13T05:16:13.709Z,98.40
2022-11-13T05:19:34.286Z,98.54
2022-11-13T05:22:54.722Z,98.45
2022-11-13T05:26:15.773Z,98.48
2022-11-13T05:29:36.042Z,98.38
2022-11-13T05:32:56.647Z,98.51
2022-11-13T05:36:18.612Z,98.88
2022-11-13T05:39:39.033Z,98.88
2022-11-13T05:42:59.672Z,98.72
2022-11-13T05:46:22.968Z,98.78
2022-11-13T05:49:43.496Z,99.16
2022-11-13T05:53:04.237Z,98.88
2022-11-13T05:56:32.285Z,98.58
2022-11-13T05:59:52.841Z,98.59
2022-11-13T06:03:20.082Z,98.78
2022-11-13T06:06:40.997Z,98.23
2022-11-13T06:10:08.654Z,98.19
2022-11-13T06:13:30.560Z,98.13
2022-11-13T06:16:50.945Z,97.95
2022-11-13T06:20:11.575Z,97.37
2022-11-13T06:23:34.233Z,97.43
2022-11-13T06:26:54.846Z,96.93
2022-11-13T06:30:15.641Z,97.06
2022-11-13T06:33:37.674Z,97.08
2022-11-13T06:36:58.053Z,97.01
2022-11-13T06:40:18.667Z,96.81
2022-11-13T06:43:39.754Z,96.40
2022-11-13T06:47:00.134Z,96.56
2022-11-13T06:50:20.998Z,96.02
2022-11-13T06:53:41.964Z,95.41
2022-11-13T06:57:02.574Z,93.69
2022-11-13T07:00:26.366Z,90.92
2022-11-13T07:03:46.901Z,90.90
2022-11-13T07:07:07.797Z,90.90
2022-11-13T07:10:28.449Z,91.24
2022-11-13T07:13:50.025Z,91.20
2022-11-13T07:17:10.796Z,91.04
2022-11-13T07:20:32.206Z,90.81
2022-11-13T07:23:53.086Z,90.84
2022-11-13T07:27:13.737Z,89.74
2022-11-13T07:30:34.455Z,86.93
2022-11-13T07:33:55.160Z,82.25
2022-11-13T07:37:16.056Z,78.47
2022-11-13T07:40:36.583Z,75.71
2022-11-13T07:43:57.178Z,73.50
2022-11-13T07:47:17.883Z,70.52
2022-11-13T07:50:39.513Z,69.85
2022-11-13T07:54:00.180Z,70.64
2022-11-13T07:57:22.886Z,72.22
2022-11-13T08:00:43.410Z,73.80
2022-11-13T08:04:04.107Z,73.96
2022-11-13T08:07:24.954Z,73.72
2022-11-13T08:10:45.622Z,75.43
2022-11-13T08:14:06.396Z,78.47
2022-11-13T08:17:26.971Z,76.96
2022-11-13T08:20:47.660Z,76.79
2022-11-13T08:24:10.193Z,76.87
2022-11-13T08:27:30.621Z,78.61
2022-11-13T08:30:51.379Z,79.73
2022-11-13T08:34:12.064Z,80.56
2022-11-13T08:37:33.383Z,81.06
2022-11-13T08:41:04.370Z,81.95
2022-11-13T08:44:28.154Z,81.81
2022-11-13T08:47:48.767Z,82.38
2022-11-13T08:51:09.325Z,81.10
2022-11-13T08:54:30.127Z,80.79
2022-11-13T08:57:51.749Z,80.41
2022-11-13T09:01:12.222Z,78.39
2022-11-13T09:04:32.936Z,76.90
2022-11-13T09:08:01.423Z,78.18
2022-11-13T09:11:22.603Z,79.57
2022-11-13T09:14:43.065Z,79.44
2022-11-13T09:18:04.626Z,80.57
2022-11-13T09:21:25.069Z,80.37
2022-11-13T09:24:45.791Z,80.88
2022-11-13T09:28:07.342Z,81.78
2022-11-13T09:31:27.906Z,80.98
2022-11-13T09:34:48.509Z,80.42
2022-11-13T09:38:14.780Z,80.25
2022-11-13T09:41:41.018Z,80.22
2022-11-13T09:45:07.826Z,80.62
2022-11-13T09:49:01.638Z,79.44
2022-11-13T09:52:31.120Z,78.97
2022-11-13T09:56:22.226Z,78.68
2022-11-13T09:59:59.375Z,77.98
2022-11-13T10:03:59.755Z,77.24
2022-11-13T10:07:52.831Z,78.25
2022-11-13T10:11:27.104Z,77.84
2022-11-13T10:14:52.717Z,77.36
2022-11-13T10:18:20.477Z,77.68
2022-11-13T10:21:52.088Z,78.88
2022-11-13T10:25:38.258Z,78.52
2022-11-13T10:29:13.121Z,77.25
2022-11-13T10:32:33.749Z,75.99
2022-11-13T10:36:32.230Z,77.45
2022-11-13T10:39:52.770Z,77.81
2022-11-13T10:43:14.565Z,73.15
2022-11-13T10:46:35.101Z,73.50
2022-11-13T10:49:56.165Z,73.29
2022-11-13T10:53:18.290Z,70.11
2022-11-13T10:56:45.810Z,61.59
2022-11-13T11:00:40.576Z,54.34
2022-11-13T11:04:13.805Z,52.19
2022-11-13T11:07:41.193Z,48.68
2022-11-13T11:11:34.767Z,48.64
2022-11-13T11:15:01.416Z,45.34
2022-11-13T11:18:51.962Z,43.95
2022-11-13T11:22:21.063Z,42.19
2022-11-13T11:25:46.733Z,43.53
2022-11-13T11:29:25.114Z,41.88
2022-11-13T11:33:01.275Z,40.51
2022-11-13T11:36:29.728Z,40.62
2022-11-13T11:39:57.918Z,40.69
2022-11-13T11:43:34.536Z,40.24
2022-11-13T11:46:55.895Z,40.11
2022-11-13T11:50:20.166Z,40.14
2022-11-13T11:53:47.198Z,39.21
2022-11-13T11:57:39.866Z,38.79
2022-11-13T12:01:39.200Z,37.87
2022-11-13T12:05:21.432Z,38.75
2022-11-13T12:09:00.637Z,39.39
2022-11-13T12:12:21.076Z,38.34
2022-11-13T12:16:12.731Z,37.87
2022-11-13T12:19:48.644Z,37.40
2022-11-13T12:23:27.887Z,35.69
2022-11-13T12:27:29.316Z,37.05
2022-11-13T12:31:23.154Z,40.05
2022-11-13T12:34:54.275Z,40.50
2022-11-13T12:38:44.305Z,41.02
2022-11-13T12:42:19.627Z,39.50
2022-11-13T12:45:39.872Z,37.51
2022-11-13T12:49:01.068Z,36.05
2022-11-13T12:52:24.305Z,35.49
2022-11-13T12:56:00.322Z,35.11
2022-11-13T12:59:30.951Z,34.96
2022-11-13T13:03:30.810Z,35.77
2022-11-13T13:07:31.520Z,39.35
2022-11-13T13:10:52.160Z,38.22
2022-11-13T13:14:31.648Z,38.58
2022-11-13T13:18:26.133Z,37.27
2022-11-13T13:21:47.112Z,39.38
2022-11-13T13:25:29.013Z,40.62
2022-11-13T13:28:55.808Z,41.89
2022-11-13T13:32:23.686Z,40.08
2022-11-13T13:35:54.881Z,39.39
2022-11-13T13:39:29.281Z,39.08
2022-11-13T13:43:01.834Z,39.81
2022-11-13T13:46:29.451Z,39.18
2022-11-13T13:49:51.303Z,40.43
2022-11-13T13:53:20.195Z,42.10
2022-11-13T13:56:41.949Z,41.02
2022-11-13T14:00:02.493Z,43.29
2022-11-13T14:03:25.203Z,43.57
2022-11-13T14:06:59.546Z,44.64
2022-11-13T14:10:29.666Z,44.02
2022-11-13T14:13:50.257Z,44.51
2022-11-13T14:17:12.226Z,44.17
2022-11-13T14:20:52.860Z,44.71
2022-11-13T14:24:23.399Z,44.91
2022-11-13T14:27:44.094Z,45.52
2022-11-13T14:31:08.516Z,46.67
2022-11-13T14:34:31.024Z,50.54
2022-11-13T14:37:53.239Z,56.82
2022-11-13T14:41:28.268Z,60.20
2022-11-13T14:44:48.962Z,64.49
2022-11-13T14:48:22.374Z,67.40
2022-11-13T14:51:42.812Z,68.09
2022-11-13T14:55:15.107Z,69.65
2022-11-13T14:58:39.440Z,70.37
2022-11-13T15:01:59.999Z,71.81
2022-11-13T15:05:20.905Z,72.45
2022-11-13T15:08:41.908Z,73.82
2022-11-13T15:12:02.321Z,74.88
2022-11-13T15:15:30.204Z,75.48
2022-11-13T15:18:55.454Z,75.87
2022-11-13T15:22:31.566Z,77.17
2022-11-13T15:25:52.398Z,77.60
2022-11-13T15:29:13.189Z,78.80
2022-11-13T15:32:33.815Z,80.77
2022-11-13T15:35:54.494Z,81.11
2022-11-13T15:39:22.936Z,80.96
2022-11-13T15:42:44.793Z,81.22
2022-11-13T15:46:05.366Z,81.60
2022-11-13T15:49:27.570Z,81.80
2022-11-13T15:52:51.126Z,81.33
2022-11-13T15:56:11.616Z,81.85
2022-11-13T15:59:32.339Z,81.92
2022-11-13T16:02:57.560Z,81.97
2022-11-13T16:06:22.346Z,82.91
2022-11-13T16:09:43.852Z,82.97
2022-11-13T16:13:05.146Z,83.65
2022-11-13T16:16:29.944Z,83.95
2022-11-13T16:19:54.194Z,84.72
2022-11-13T16:23:19.817Z,84.64
2022-11-13T16:26:43.184Z,84.18
2022-11-13T16:30:07.072Z,85.68
2022-11-13T16:33:27.993Z,86.21
2022-11-13T16:36:51.466Z,85.38
2022-11-13T16:40:20.375Z,85.72
2022-11-13T16:43:40.927Z,86.51
2022-11-13T16:47:01.638Z,87.12
2022-11-13T16:50:31.643Z,87.17
2022-11-13T16:53:52.731Z,87.39
2022-11-13T16:57:14.325Z,87.11
2022-11-13T17:00:34.709Z,86.71
2022-11-13T17:03:55.311Z,87.70
2022-11-13T17:07:16.182Z,87.56
2022-11-13T17:10:36.857Z,87.20
2022-11-13T17:14:00.051Z,88.17
2022-11-13T17:17:20.595Z,89.10
2022-11-13T17:20:41.367Z,87.82
2022-11-13T17:24:03.578Z,88.53
2022-11-13T17:27:23.911Z,88.70
2022-11-13T17:30:44.555Z,88.45
2022-11-13T17:34:05.325Z,89.70
2022-11-13T17:37:26.164Z,90.13
2022-11-13T17:40:46.895Z,90.32
2022-11-13T17:44:07.738Z,89.88
2022-11-13T17:47:28.381Z,90.09
2022-11-13T17:50:59.613Z,89.66
2022-11-13T17:54:20.657Z,90.54
2022-11-13T17:57:41.512Z,91.71
2022-11-13T18:01:08.242Z,91.11
2022-11-13T18:04:28.971Z,93.22
2022-11-13T18:07:49.629Z,93.42
2022-11-13T18:11:15.586Z,93.68
2022-11-13T18:14:36.562Z,91.69
2022-11-13T18:17:57.698Z,90.88
2022-11-13T18:21:23.424Z,91.29
2022-11-13T18:24:44.746Z,91.07
2022-11-13T18:28:05.575Z,91.63
2022-11-13T18:31:26.494Z,92.56
2022-11-13T18:34:46.971Z,92.58
2022-11-13T18:38:07.810Z,93.45
2022-11-13T18:41:29.250Z,93.66
2022-11-13T18:44:49.686Z,93.08
2022-11-13T18:48:10.379Z,93.52
2022-11-13T18:51:35.527Z,93.87
2022-11-13T18:54:56.173Z,93.72
2022-11-13T18:58:16.958Z,93.51
2022-11-13T19:01:39.837Z,93.31
2022-11-13T19:05:00.466Z,92.92
2022-11-13T19:08:21.299Z,95.36
2022-11-13T19:11:42.952Z,94.09
2022-11-13T19:15:05.570Z,93.44
2022-11-13T19:18:26.602Z,95.13
2022-11-13T19:21:48.529Z,95.15
2022-11-13T19:25:09.216Z,95.56
2022-11-13T19:28:30.558Z,95.76
2022-11-13T19:31:53.621Z,96.28
2022-11-13T19:35:14.524Z,95.45
2022-11-13T19:38:35.916Z,95.66
2022-11-13T19:41:56.514Z,95.27
2022-11-13T19:45:17.381Z,95.47
2022-11-13T19:48:39.787Z,95.94
2022-11-13T19:52:00.629Z,95.52
2022-11-13T19:55:21.315Z,95.57
2022-11-13T19:58:46.923Z,95.25
2022-11-13T20:02:09.027Z,95.07
2022-11-13T20:05:29.390Z,95.36
2022-11-13T20:08:50.309Z,95.02
2022-11-13T20:12:10.810Z,95.12
2022-11-13T20:15:32.440Z,95.46
2022-11-13T20:18:56.819Z,95.77
2022-11-13T20:22:17.325Z,96.29
2022-11-13T20:25:37.971Z,96.18
2022-11-13T20:28:58.697Z,96.64
2022-11-13T20:32:19.534Z,95.86
2022-11-13T20:35:40.206Z,95.28
2022-11-13T20:39:04.415Z,94.77
2022-11-13T20:42:27.902Z,96.09
2022-11-13T20:46:06.472Z,95.23
2022-11-13T20:49:27.211Z,95.04
2022-11-13T20:52:47.908Z,94.85
2022-11-13T20:56:09.283Z,95.17
2022-11-13T20:59:30.146Z,95.33
2022-11-13T21:02:51.715Z,95.38
2022-11-13T21:06:15.753Z,95.70
2022-11-13T21:09:36.790Z,95.62
2022-11-13T21:12:57.522Z,96.00
2022-11-13T21:16:18.550Z,96.90
2022-11-13T21:19:39.258Z,96.70
2022-11-13T21:22:59.884Z,96.14
2022-11-13T21:26:20.654Z,95.60
2022-11-13T21:29:41.615Z,95.20
2022-11-13T21:33:02.206Z,95.30
2022-11-13T21:36:25.394Z,94.95
2022-11-13T21:39:45.974Z,95.04
2022-11-13T21:43:06.505Z,95.94
2022-11-13T21:46:36.911Z,95.20
2022-11-13T21:49:57.394Z,95.05
2022-11-13T21:53:18.148Z,95.33
2022-11-13T21:56:39.035Z,96.37
2022-11-13T21:59:59.448Z,96.37
2022-11-13T22:03:19.996Z,96.79
2022-11-13T22:06:46.430Z,97.71
2022-11-13T22:10:08.681Z,97.53
2022-11-13T22:13:30.397Z,96.90
2022-11-13T22:16:50.845Z,96.90
2022-11-13T22:20:12.085Z,96.86
2022-11-13T22:23:33.248Z,97.29
2022-11-13T22:26:53.950Z,96.94
2022-11-13T22:30:14.988Z,97.90
2022-11-13T22:33:36.509Z,97.75
2022-11-13T22:36:57.179Z,97.53
2022-11-13T22:40:18.071Z,97.91
2022-11-13T22:43:41.074Z,97.65
2022-11-13T22:47:01.712Z,98.84
2022-11-13T22:50:22.355Z,97.96
2022-11-13T22:53:47.379Z,98.72
2022-11-13T22:57:07.873Z,98.74
2022-11-13T23:00:28.673Z,99.02
2022-11-13T23:03:50.950Z,99.02
2022-11-13T23:07:11.531Z,99.42
2022-11-13T23:10:32.077Z,99.37
2022-11-13T23:13:57.341Z,99.96
2022-11-13T23:17:18.083Z,99.59
2022-11-13T23:20:43.263Z,99.30
2022-11-13T23:24:04.067Z,99.50
2022-11-13T23:27:24.491Z,99.20
2022-11-13T23:30:45.168Z,99.44
2022-11-13T23:34:06.544Z,99.10
2022-11-13T23:37:27.134Z,98.82
2022-11-13T23:40:56.145Z,98.19
2022-11-13T23:44:16.845Z,98.20
2022-11-13T23:47:37.804Z,98.23
2022-11-13T23:51:02.697Z,98.75
2022-11-13T23:54:23.221Z,99.32
2022-11-13T23:57:43.570Z,99.40
